sensor_id;sensor_type;location;lat;lon;timestamp;temperature;humidity
41294;DHT22;27037;52.010;4.446;2022-09-25T00:00:26;11.20;99.90
41294;DHT22;27037;52.010;4.446;2022-09-25T00:02:52;11.10;99.90
41294;DHT22;27037;52.010;4.446;2022-09-25T00:05:17;11.10;99.90
41294;DHT22;27037;52.010;4.446;2022-09-25T00:07:43;11.10;99.90
41294;DHT22;27037;52.010;4.446;2022-09-25T00:10:08;11.10;99.90
41294;DHT22;27037;52.010;4.446;2022-09-25T00:12:34;11.00;99.90
41294;DHT22;27037;52.010;4.446;2022-09-25T00:15:01;11.10;99.90
41294;DHT22;27037;52.010;4.446;2022-09-25T00:17:26;11.00;99.90
41294;DHT22;27037;52.010;4.446;2022-09-25T00:19:52;11.00;99.90
41294;DHT22;27037;52.010;4.446;2022-09-25T00:22:22;11.00;99.90
41294;DHT22;27037;52.010;4.446;2022-09-25T00:24:49;11.00;99.90
41294;DHT22;27037;52.010;4.446;2022-09-25T00:27:15;11.00;99.90
41294;DHT22;27037;52.010;4.446;2022-09-25T00:29:41;11.00;99.90
41294;DHT22;27037;52.010;4.446;2022-09-25T00:32:08;11.00;99.90
41294;DHT22;27037;52.010;4.446;2022-09-25T00:34:35;10.90;99.90
41294;DHT22;27037;52.010;4.446;2022-09-25T00:37:01;10.90;99.90
41294;DHT22;27037;52.010;4.446;2022-09-25T00:39:27;10.90;99.90
41294;DHT22;27037;52.010;4.446;2022-09-25T00:41:53;10.90;99.90
41294;DHT22;27037;52.010;4.446;2022-09-25T00:44:54;10.90;99.90
41294;DHT22;27037;52.010;4.446;2022-09-25T00:52:41;10.80;99.90
41294;DHT22;27037;52.010;4.446;2022-09-25T00:55:08;10.70;99.90
41294;DHT22;27037;52.010;4.446;2022-09-25T00:57:35;10.70;99.90
41294;DHT22;27037;52.010;4.446;2022-09-25T01:00:09;10.70;99.90
41294;DHT22;27037;52.010;4.446;2022-09-25T01:02:40;10.70;99.90
41294;DHT22;27037;52.010;4.446;2022-09-25T01:05:15;10.70;99.90
41294;DHT22;27037;52.010;4.446;2022-09-25T01:07:44;10.60;99.90
41294;DHT22;27037;52.010;4.446;2022-09-25T01:10:11;10.60;99.90
41294;DHT22;27037;52.010;4.446;2022-09-25T01:12:44;10.60;99.90
41294;DHT22;27037;52.010;4.446;2022-09-25T01:15:12;10.60;99.90
41294;DHT22;27037;52.010;4.446;2022-09-25T01:20:42;10.60;99.90
41294;DHT22;27037;52.010;4.446;2022-09-25T01:31:45;10.50;99.90
41294;DHT22;27037;52.010;4.446;2022-09-25T01:34:15;10.50;99.90
41294;DHT22;27037;52.010;4.446;2022-09-25T01:36:52;10.50;99.90
41294;DHT22;27037;52.010;4.446;2022-09-25T01:39:31;10.50;99.90
41294;DHT22;27037;52.010;4.446;2022-09-25T01:42:09;10.40;99.90
41294;DHT22;27037;52.010;4.446;2022-09-25T01:44:44;10.40;99.90
41294;DHT22;27037;52.010;4.446;2022-09-25T01:47:16;10.40;99.90
41294;DHT22;27037;52.010;4.446;2022-09-25T01:49:47;10.40;99.90
41294;DHT22;27037;52.010;4.446;2022-09-25T01:52:21;10.40;99.90
41294;DHT22;27037;52.010;4.446;2022-09-25T01:54:51;10.40;99.90
41294;DHT22;27037;52.010;4.446;2022-09-25T01:59:57;10.30;99.90
41294;DHT22;27037;52.010;4.446;2022-09-25T02:02:30;10.30;99.90
41294;DHT22;27037;52.010;4.446;2022-09-25T02:05:08;10.30;99.90
41294;DHT22;27037;52.010;4.446;2022-09-25T02:07:41;10.30;99.90
41294;DHT22;27037;52.010;4.446;2022-09-25T02:10:14;10.30;99.90
41294;DHT22;27037;52.010;4.446;2022-09-25T02:12:44;10.30;99.90
41294;DHT22;27037;52.010;4.446;2022-09-25T02:15:25;10.40;99.90
41294;DHT22;27037;52.010;4.446;2022-09-25T02:17:59;10.40;99.90
41294;DHT22;27037;52.010;4.446;2022-09-25T02:20:59;10.40;99.90
41294;DHT22;27037;52.010;4.446;2022-09-25T02:26:08;10.50;99.90
41294;DHT22;27037;52.010;4.446;2022-09-25T02:28:38;10.60;99.90
41294;DHT22;27037;52.010;4.446;2022-09-25T02:31:07;10.70;99.90
41294;DHT22;27037;52.010;4.446;2022-09-25T02:33:34;10.70;99.90
41294;DHT22;27037;52.010;4.446;2022-09-25T02:36:01;10.70;99.90
41294;DHT22;27037;52.010;4.446;2022-09-25T02:38:28;10.80;99.90
41294;DHT22;27037;52.010;4.446;2022-09-25T02:49:38;10.80;99.90
41294;DHT22;27037;52.010;4.446;2022-09-25T02:51:54;10.90;99.90
41294;DHT22;27037;52.010;4.446;2022-09-25T02:54:31;10.90;99.90
41294;DHT22;27037;52.010;4.446;2022-09-25T02:59:51;10.90;99.90
41294;DHT22;27037;52.010;4.446;2022-09-25T03:02:18;11.00;99.90
41294;DHT22;27037;52.010;4.446;2022-09-25T03:04:45;11.00;99.90
41294;DHT22;27037;52.010;4.446;2022-09-25T03:07:14;11.00;99.90
41294;DHT22;27037;52.010;4.446;2022-09-25T03:09:42;11.10;99.90
41294;DHT22;27037;52.010;4.446;2022-09-25T03:12:11;11.10;99.90
41294;DHT22;27037;52.010;4.446;2022-09-25T03:14:37;11.10;99.90
41294;DHT22;27037;52.010;4.446;2022-09-25T03:17:04;11.10;99.90
41294;DHT22;27037;52.010;4.446;2022-09-25T03:19:31;11.20;99.90
41294;DHT22;27037;52.010;4.446;2022-09-25T03:21:59;11.20;99.90
41294;DHT22;27037;52.010;4.446;2022-09-25T03:24:25;11.20;99.90
41294;DHT22;27037;52.010;4.446;2022-09-25T03:26:52;11.30;99.90
41294;DHT22;27037;52.010;4.446;2022-09-25T03:29:20;11.30;99.90
41294;DHT22;27037;52.010;4.446;2022-09-25T03:31:47;11.40;99.90
41294;DHT22;27037;52.010;4.446;2022-09-25T03:34:15;11.40;99.90
41294;DHT22;27037;52.010;4.446;2022-09-25T03:36:42;11.40;99.90
41294;DHT22;27037;52.010;4.446;2022-09-25T03:39:10;11.50;99.90
41294;DHT22;27037;52.010;4.446;2022-09-25T03:41:36;11.50;99.90
41294;DHT22;27037;52.010;4.446;2022-09-25T03:44:02;11.60;99.90
41294;DHT22;27037;52.010;4.446;2022-09-25T03:46:30;11.60;99.90
41294;DHT22;27037;52.010;4.446;2022-09-25T03:48:57;11.60;99.90
41294;DHT22;27037;52.010;4.446;2022-09-25T03:51:24;11.60;99.90
41294;DHT22;27037;52.010;4.446;2022-09-25T03:53:50;11.70;99.90
41294;DHT22;27037;52.010;4.446;2022-09-25T03:56:18;11.60;99.90
41294;DHT22;27037;52.010;4.446;2022-09-25T03:58:45;11.60;99.90
41294;DHT22;27037;52.010;4.446;2022-09-25T04:01:12;11.60;99.90
41294;DHT22;27037;52.010;4.446;2022-09-25T04:03:38;11.60;99.90
41294;DHT22;27037;52.010;4.446;2022-09-25T04:06:07;11.60;99.90
41294;DHT22;27037;52.010;4.446;2022-09-25T04:08:35;11.70;99.90
41294;DHT22;27037;52.010;4.446;2022-09-25T04:11:01;11.60;99.90
41294;DHT22;27037;52.010;4.446;2022-09-25T04:13:33;11.60;99.90
41294;DHT22;27037;52.010;4.446;2022-09-25T04:16:00;11.60;99.90
41294;DHT22;27037;52.010;4.446;2022-09-25T04:18:28;11.60;99.90
41294;DHT22;27037;52.010;4.446;2022-09-25T04:20:56;11.60;99.90
41294;DHT22;27037;52.010;4.446;2022-09-25T04:23:22;11.50;99.90
41294;DHT22;27037;52.010;4.446;2022-09-25T04:25:47;11.50;99.90
41294;DHT22;27037;52.010;4.446;2022-09-25T04:28:14;11.50;99.90
41294;DHT22;27037;52.010;4.446;2022-09-25T04:30:39;11.40;99.90
41294;DHT22;27037;52.010;4.446;2022-09-25T04:33:05;11.40;99.90
41294;DHT22;27037;52.010;4.446;2022-09-25T04:35:49;11.40;99.90
41294;DHT22;27037;52.010;4.446;2022-09-25T04:38:15;11.30;99.90
41294;DHT22;27037;52.010;4.446;2022-09-25T04:40:40;11.30;99.90
41294;DHT22;27037;52.010;4.446;2022-09-25T04:43:06;11.30;99.90
41294;DHT22;27037;52.010;4.446;2022-09-25T04:45:34;11.30;99.90
41294;DHT22;27037;52.010;4.446;2022-09-25T04:48:01;11.20;99.90
41294;DHT22;27037;52.010;4.446;2022-09-25T04:50:28;11.20;99.90
41294;DHT22;27037;52.010;4.446;2022-09-25T04:52:55;11.10;99.90
41294;DHT22;27037;52.010;4.446;2022-09-25T04:55:22;11.10;99.90
41294;DHT22;27037;52.010;4.446;2022-09-25T04:58:01;11.10;99.90
41294;DHT22;27037;52.010;4.446;2022-09-25T05:00:29;11.10;99.90
41294;DHT22;27037;52.010;4.446;2022-09-25T05:02:56;11.10;99.90
41294;DHT22;27037;52.010;4.446;2022-09-25T05:05:22;11.10;99.90
41294;DHT22;27037;52.010;4.446;2022-09-25T05:07:52;11.10;99.90
41294;DHT22;27037;52.010;4.446;2022-09-25T05:10:19;11.10;99.90
41294;DHT22;27037;52.010;4.446;2022-09-25T05:12:45;11.10;99.90
41294;DHT22;27037;52.010;4.446;2022-09-25T05:15:12;11.10;99.90
41294;DHT22;27037;52.010;4.446;2022-09-25T05:17:37;11.10;99.90
41294;DHT22;27037;52.010;4.446;2022-09-25T05:20:03;11.10;99.90
41294;DHT22;27037;52.010;4.446;2022-09-25T05:22:29;11.10;99.90
41294;DHT22;27037;52.010;4.446;2022-09-25T05:24:54;11.10;99.90
41294;DHT22;27037;52.010;4.446;2022-09-25T05:27:20;11.10;99.90
41294;DHT22;27037;52.010;4.446;2022-09-25T05:29:47;11.10;99.90
41294;DHT22;27037;52.010;4.446;2022-09-25T05:32:13;11.10;99.90
41294;DHT22;27037;52.010;4.446;2022-09-25T05:34:39;11.10;99.90
41294;DHT22;27037;52.010;4.446;2022-09-25T05:37:05;11.20;99.90
41294;DHT22;27037;52.010;4.446;2022-09-25T05:39:30;11.20;99.90
41294;DHT22;27037;52.010;4.446;2022-09-25T05:41:56;11.20;99.90
41294;DHT22;27037;52.010;4.446;2022-09-25T05:44:22;11.20;99.90
41294;DHT22;27037;52.010;4.446;2022-09-25T05:46:49;11.10;99.90
41294;DHT22;27037;52.010;4.446;2022-09-25T05:49:15;11.10;99.90
41294;DHT22;27037;52.010;4.446;2022-09-25T05:51:40;11.20;99.90
41294;DHT22;27037;52.010;4.446;2022-09-25T05:54:06;11.10;99.90
41294;DHT22;27037;52.010;4.446;2022-09-25T05:56:32;11.10;99.90
41294;DHT22;27037;52.010;4.446;2022-09-25T05:58:57;11.20;99.90
41294;DHT22;27037;52.010;4.446;2022-09-25T06:01:23;11.20;99.90
41294;DHT22;27037;52.010;4.446;2022-09-25T06:03:50;11.10;99.90
41294;DHT22;27037;52.010;4.446;2022-09-25T06:06:15;11.20;99.90
41294;DHT22;27037;52.010;4.446;2022-09-25T06:08:41;11.20;99.90
41294;DHT22;27037;52.010;4.446;2022-09-25T06:11:07;11.20;99.90
41294;DHT22;27037;52.010;4.446;2022-09-25T06:13:33;11.20;99.90
41294;DHT22;27037;52.010;4.446;2022-09-25T06:16:01;11.20;99.90
41294;DHT22;27037;52.010;4.446;2022-09-25T06:18:27;11.30;99.90
41294;DHT22;27037;52.010;4.446;2022-09-25T06:20:59;11.40;99.90
41294;DHT22;27037;52.010;4.446;2022-09-25T06:23:25;11.40;99.90
41294;DHT22;27037;52.010;4.446;2022-09-25T06:25:51;11.50;99.90
41294;DHT22;27037;52.010;4.446;2022-09-25T06:28:17;11.50;99.90
41294;DHT22;27037;52.010;4.446;2022-09-25T06:30:43;11.60;99.90
41294;DHT22;27037;52.010;4.446;2022-09-25T06:33:12;11.60;99.90
41294;DHT22;27037;52.010;4.446;2022-09-25T06:35:45;11.60;99.90
41294;DHT22;27037;52.010;4.446;2022-09-25T06:38:12;11.70;99.90
41294;DHT22;27037;52.010;4.446;2022-09-25T06:40:38;11.70;99.90
41294;DHT22;27037;52.010;4.446;2022-09-25T06:43:06;11.80;99.90
41294;DHT22;27037;52.010;4.446;2022-09-25T06:45:33;11.80;99.90
41294;DHT22;27037;52.010;4.446;2022-09-25T06:48:04;11.80;99.90
41294;DHT22;27037;52.010;4.446;2022-09-25T06:53:13;11.90;99.90
41294;DHT22;27037;52.010;4.446;2022-09-25T06:55:39;12.00;99.90
41294;DHT22;27037;52.010;4.446;2022-09-25T06:58:07;12.00;99.90
41294;DHT22;27037;52.010;4.446;2022-09-25T07:00:33;12.10;99.90
41294;DHT22;27037;52.010;4.446;2022-09-25T07:02:59;12.10;99.90
41294;DHT22;27037;52.010;4.446;2022-09-25T07:05:45;12.20;99.90
41294;DHT22;27037;52.010;4.446;2022-09-25T07:08:11;12.20;99.90
41294;DHT22;27037;52.010;4.446;2022-09-25T07:10:39;12.30;99.90
41294;DHT22;27037;52.010;4.446;2022-09-25T07:13:05;12.30;99.90
41294;DHT22;27037;52.010;4.446;2022-09-25T07:15:31;12.40;99.90
41294;DHT22;27037;52.010;4.446;2022-09-25T07:17:56;12.50;99.90
41294;DHT22;27037;52.010;4.446;2022-09-25T07:20:22;12.50;99.90
41294;DHT22;27037;52.010;4.446;2022-09-25T07:22:47;12.60;99.90
41294;DHT22;27037;52.010;4.446;2022-09-25T07:25:13;12.60;99.90
41294;DHT22;27037;52.010;4.446;2022-09-25T07:27:39;12.70;99.90
41294;DHT22;27037;52.010;4.446;2022-09-25T07:30:07;12.70;99.90
41294;DHT22;27037;52.010;4.446;2022-09-25T07:32:33;12.80;99.90
41294;DHT22;27037;52.010;4.446;2022-09-25T07:34:58;12.80;99.90
41294;DHT22;27037;52.010;4.446;2022-09-25T07:37:24;12.90;99.90
41294;DHT22;27037;52.010;4.446;2022-09-25T07:39:50;12.90;99.90
41294;DHT22;27037;52.010;4.446;2022-09-25T07:42:15;12.90;99.90
41294;DHT22;27037;52.010;4.446;2022-09-25T07:44:41;13.00;99.90
41294;DHT22;27037;52.010;4.446;2022-09-25T07:47:07;13.00;99.90
41294;DHT22;27037;52.010;4.446;2022-09-25T07:49:34;13.00;99.90
41294;DHT22;27037;52.010;4.446;2022-09-25T07:52:00;13.10;99.90
41294;DHT22;27037;52.010;4.446;2022-09-25T07:54:26;13.10;99.90
41294;DHT22;27037;52.010;4.446;2022-09-25T07:56:52;13.20;99.90
41294;DHT22;27037;52.010;4.446;2022-09-25T07:59:18;13.20;99.90
41294;DHT22;27037;52.010;4.446;2022-09-25T08:01:44;13.30;99.90
41294;DHT22;27037;52.010;4.446;2022-09-25T08:04:09;13.30;99.90
41294;DHT22;27037;52.010;4.446;2022-09-25T08:06:35;13.40;99.90
41294;DHT22;27037;52.010;4.446;2022-09-25T08:09:02;13.50;99.90
41294;DHT22;27037;52.010;4.446;2022-09-25T08:11:28;13.50;99.90
41294;DHT22;27037;52.010;4.446;2022-09-25T08:13:56;13.60;99.90
41294;DHT22;27037;52.010;4.446;2022-09-25T08:16:21;13.70;99.90
41294;DHT22;27037;52.010;4.446;2022-09-25T08:18:49;13.80;99.90
41294;DHT22;27037;52.010;4.446;2022-09-25T08:21:17;14.00;99.90
41294;DHT22;27037;52.010;4.446;2022-09-25T08:23:47;14.20;99.90
41294;DHT22;27037;52.010;4.446;2022-09-25T08:26:14;14.40;99.90
41294;DHT22;27037;52.010;4.446;2022-09-25T08:28:40;14.60;99.90
41294;DHT22;27037;52.010;4.446;2022-09-25T08:31:06;14.80;99.90
41294;DHT22;27037;52.010;4.446;2022-09-25T08:33:33;15.00;99.90
41294;DHT22;27037;52.010;4.446;2022-09-25T08:36:01;15.10;99.90
41294;DHT22;27037;52.010;4.446;2022-09-25T08:38:27;15.30;99.90
41294;DHT22;27037;52.010;4.446;2022-09-25T08:41:04;15.40;99.90
41294;DHT22;27037;52.010;4.446;2022-09-25T08:43:35;15.40;99.90
41294;DHT22;27037;52.010;4.446;2022-09-25T08:46:05;15.40;99.90
41294;DHT22;27037;52.010;4.446;2022-09-25T08:48:55;15.40;99.90
41294;DHT22;27037;52.010;4.446;2022-09-25T08:51:31;15.40;99.90
41294;DHT22;27037;52.010;4.446;2022-09-25T08:53:59;15.40;99.90
41294;DHT22;27037;52.010;4.446;2022-09-25T08:56:27;15.40;99.90
41294;DHT22;27037;52.010;4.446;2022-09-25T08:59:21;15.40;99.90
41294;DHT22;27037;52.010;4.446;2022-09-25T09:02:12;15.30;99.90
41294;DHT22;27037;52.010;4.446;2022-09-25T09:04:56;15.40;99.90
41294;DHT22;27037;52.010;4.446;2022-09-25T09:07:28;15.60;99.90
41294;DHT22;27037;52.010;4.446;2022-09-25T09:12:35;15.80;99.90
41294;DHT22;27037;52.010;4.446;2022-09-25T09:17:45;16.10;99.90
41294;DHT22;27037;52.010;4.446;2022-09-25T09:20:29;16.20;99.90
41294;DHT22;27037;52.010;4.446;2022-09-25T09:22:58;16.20;99.90
41294;DHT22;27037;52.010;4.446;2022-09-25T09:25:34;16.30;99.90
41294;DHT22;27037;52.010;4.446;2022-09-25T09:46:02;17.30;99.90
41294;DHT22;27037;52.010;4.446;2022-09-25T09:56:56;17.90;99.90
41294;DHT22;27037;52.010;4.446;2022-09-25T09:59:41;18.00;99.90
41294;DHT22;27037;52.010;4.446;2022-09-25T10:02:28;18.20;99.90
41294;DHT22;27037;52.010;4.446;2022-09-25T10:04:55;18.30;99.90
41294;DHT22;27037;52.010;4.446;2022-09-25T10:07:22;18.30;99.90
41294;DHT22;27037;52.010;4.446;2022-09-25T10:09:49;18.40;99.90
41294;DHT22;27037;52.010;4.446;2022-09-25T10:12:42;18.40;99.90
41294;DHT22;27037;52.010;4.446;2022-09-25T10:15:18;18.40;99.90
41294;DHT22;27037;52.010;4.446;2022-09-25T10:17:45;18.50;99.90
41294;DHT22;27037;52.010;4.446;2022-09-25T10:20:17;18.50;99.90
41294;DHT22;27037;52.010;4.446;2022-09-25T10:22:45;18.60;99.90
41294;DHT22;27037;52.010;4.446;2022-09-25T10:25:11;18.60;99.90
41294;DHT22;27037;52.010;4.446;2022-09-25T10:27:39;18.50;99.90
41294;DHT22;27037;52.010;4.446;2022-09-25T10:32:34;18.40;99.90
41294;DHT22;27037;52.010;4.446;2022-09-25T10:35:15;18.20;99.90
41294;DHT22;27037;52.010;4.446;2022-09-25T10:37:42;18.00;99.90
41294;DHT22;27037;52.010;4.446;2022-09-25T10:40:29;17.90;99.90
41294;DHT22;27037;52.010;4.446;2022-09-25T10:45:34;17.70;99.90
41294;DHT22;27037;52.010;4.446;2022-09-25T10:48:01;17.70;99.90
41294;DHT22;27037;52.010;4.446;2022-09-25T10:51:07;17.60;99.90
41294;DHT22;27037;52.010;4.446;2022-09-25T10:53:33;17.50;99.90
41294;DHT22;27037;52.010;4.446;2022-09-25T10:56:08;17.50;99.90
41294;DHT22;27037;52.010;4.446;2022-09-25T10:58:38;17.60;99.90
41294;DHT22;27037;52.010;4.446;2022-09-25T11:01:06;17.60;99.90
41294;DHT22;27037;52.010;4.446;2022-09-25T11:03:46;17.80;99.90
41294;DHT22;27037;52.010;4.446;2022-09-25T11:06:20;17.90;99.90
41294;DHT22;27037;52.010;4.446;2022-09-25T11:09:04;17.90;99.90
41294;DHT22;27037;52.010;4.446;2022-09-25T11:11:32;17.90;99.90
41294;DHT22;27037;52.010;4.446;2022-09-25T11:14:00;17.80;99.90
41294;DHT22;27037;52.010;4.446;2022-09-25T11:16:55;17.80;99.90
41294;DHT22;27037;52.010;4.446;2022-09-25T11:19:32;17.80;99.90
41294;DHT22;27037;52.010;4.446;2022-09-25T11:24:39;17.70;99.90
41294;DHT22;27037;52.010;4.446;2022-09-25T11:35:13;17.60;99.90
41294;DHT22;27037;52.010;4.446;2022-09-25T11:37:43;17.70;99.90
41294;DHT22;27037;52.010;4.446;2022-09-25T11:43:54;17.90;99.90
41294;DHT22;27037;52.010;4.446;2022-09-25T11:49:22;18.10;99.90
41294;DHT22;27037;52.010;4.446;2022-09-25T12:11:02;18.30;99.90
41294;DHT22;27037;52.010;4.446;2022-09-25T12:13:41;18.20;99.90
41294;DHT22;27037;52.010;4.446;2022-09-25T12:21:59;18.20;99.90
41294;DHT22;27037;52.010;4.446;2022-09-25T12:25:07;18.20;99.90
41294;DHT22;27037;52.010;4.446;2022-09-25T12:28:15;18.30;99.90
41294;DHT22;27037;52.010;4.446;2022-09-25T12:36:37;18.40;99.30
41294;DHT22;27037;52.010;4.446;2022-09-25T12:39:31;18.40;98.40
41294;DHT22;27037;52.010;4.446;2022-09-25T12:42:08;18.40;98.90
41294;DHT22;27037;52.010;4.446;2022-09-25T12:44:55;18.50;99.50
41294;DHT22;27037;52.010;4.446;2022-09-25T12:55:22;19.10;99.60
41294;DHT22;27037;52.010;4.446;2022-09-25T12:57:59;19.30;99.60
41294;DHT22;27037;52.010;4.446;2022-09-25T13:00:30;19.40;99.70
41294;DHT22;27037;52.010;4.446;2022-09-25T13:03:10;19.30;99.10
41294;DHT22;27037;52.010;4.446;2022-09-25T13:05:45;19.20;99.00
41294;DHT22;27037;52.010;4.446;2022-09-25T13:08:31;19.10;99.20
41294;DHT22;27037;52.010;4.446;2022-09-25T13:13:46;18.70;99.90
41294;DHT22;27037;52.010;4.446;2022-09-25T13:16:13;18.50;99.90
41294;DHT22;27037;52.010;4.446;2022-09-25T13:19:07;18.40;99.90
41294;DHT22;27037;52.010;4.446;2022-09-25T13:21:34;18.30;99.90
41294;DHT22;27037;52.010;4.446;2022-09-25T13:24:05;18.10;99.90
41294;DHT22;27037;52.010;4.446;2022-09-25T13:26:46;18.20;99.90
41294;DHT22;27037;52.010;4.446;2022-09-25T13:29:28;18.30;99.90
41294;DHT22;27037;52.010;4.446;2022-09-25T13:32:04;18.40;99.90
41294;DHT22;27037;52.010;4.446;2022-09-25T13:34:36;18.40;99.90
41294;DHT22;27037;52.010;4.446;2022-09-25T13:37:05;18.50;99.90
41294;DHT22;27037;52.010;4.446;2022-09-25T13:39:46;18.50;99.90
41294;DHT22;27037;52.010;4.446;2022-09-25T13:50:27;18.00;99.90
41294;DHT22;27037;52.010;4.446;2022-09-25T13:53:03;17.80;99.90
41294;DHT22;27037;52.010;4.446;2022-09-25T13:58:23;17.50;99.90
41294;DHT22;27037;52.010;4.446;2022-09-25T14:03:36;17.70;99.90
41294;DHT22;27037;52.010;4.446;2022-09-25T14:06:11;17.80;99.90
41294;DHT22;27037;52.010;4.446;2022-09-25T14:08:41;17.90;99.90
41294;DHT22;27037;52.010;4.446;2022-09-25T14:11:11;17.90;99.90
41294;DHT22;27037;52.010;4.446;2022-09-25T14:13:39;18.10;99.90
41294;DHT22;27037;52.010;4.446;2022-09-25T14:16:29;18.30;99.90
41294;DHT22;27037;52.010;4.446;2022-09-25T14:18:59;18.30;99.60
41294;DHT22;27037;52.010;4.446;2022-09-25T14:21:27;18.10;98.90
41294;DHT22;27037;52.010;4.446;2022-09-25T14:23:55;18.00;99.50
41294;DHT22;27037;52.010;4.446;2022-09-25T14:26:23;18.00;99.90
41294;DHT22;27037;52.010;4.446;2022-09-25T14:28:51;18.10;99.90
41294;DHT22;27037;52.010;4.446;2022-09-25T14:34:23;17.90;99.80
41294;DHT22;27037;52.010;4.446;2022-09-25T14:47:39;17.50;99.90
41294;DHT22;27037;52.010;4.446;2022-09-25T14:50:27;17.40;99.90
41294;DHT22;27037;52.010;4.446;2022-09-25T14:52:56;17.40;99.90
41294;DHT22;27037;52.010;4.446;2022-09-25T14:55:25;17.30;99.90
41294;DHT22;27037;52.010;4.446;2022-09-25T14:57:54;17.20;99.90
41294;DHT22;27037;52.010;4.446;2022-09-25T15:00:22;17.00;99.90
41294;DHT22;27037;52.010;4.446;2022-09-25T15:02:51;16.80;99.90
41294;DHT22;27037;52.010;4.446;2022-09-25T15:07:50;16.50;99.90
41294;DHT22;27037;52.010;4.446;2022-09-25T15:12:52;16.20;99.90
41294;DHT22;27037;52.010;4.446;2022-09-25T15:15:17;16.20;99.90
41294;DHT22;27037;52.010;4.446;2022-09-25T15:20:18;16.20;99.90
41294;DHT22;27037;52.010;4.446;2022-09-25T15:22:53;16.20;99.90
41294;DHT22;27037;52.010;4.446;2022-09-25T15:25:44;16.20;99.90
41294;DHT22;27037;52.010;4.446;2022-09-25T15:28:14;16.10;99.90
41294;DHT22;27037;52.010;4.446;2022-09-25T15:30:41;16.10;99.90
41294;DHT22;27037;52.010;4.446;2022-09-25T15:33:21;16.10;99.90
41294;DHT22;27037;52.010;4.446;2022-09-25T15:36:02;16.20;99.90
41294;DHT22;27037;52.010;4.446;2022-09-25T15:38:35;16.20;99.90
41294;DHT22;27037;52.010;4.446;2022-09-25T15:41:01;16.20;99.90
41294;DHT22;27037;52.010;4.446;2022-09-25T15:43:27;16.20;99.90
41294;DHT22;27037;52.010;4.446;2022-09-25T15:46:24;16.20;99.90
41294;DHT22;27037;52.010;4.446;2022-09-25T15:48:59;16.30;99.90
41294;DHT22;27037;52.010;4.446;2022-09-25T15:51:30;16.30;99.90
41294;DHT22;27037;52.010;4.446;2022-09-25T15:54:42;16.40;99.90
41294;DHT22;27037;52.010;4.446;2022-09-25T15:56:53;16.40;99.90
41294;DHT22;27037;52.010;4.446;2022-09-25T16:02:28;16.40;99.90
41294;DHT22;27037;52.010;4.446;2022-09-25T16:05:15;16.40;99.90
41294;DHT22;27037;52.010;4.446;2022-09-25T16:07:41;16.40;99.90
41294;DHT22;27037;52.010;4.446;2022-09-25T16:20:30;16.20;99.90
41294;DHT22;27037;52.010;4.446;2022-09-25T16:22:58;16.20;99.90
41294;DHT22;27037;52.010;4.446;2022-09-25T16:28:17;16.10;99.90
41294;DHT22;27037;52.010;4.446;2022-09-25T16:31:10;16.00;99.90
41294;DHT22;27037;52.010;4.446;2022-09-25T16:33:38;16.00;99.90
41294;DHT22;27037;52.010;4.446;2022-09-25T16:36:11;15.90;99.90
41294;DHT22;27037;52.010;4.446;2022-09-25T16:38:41;15.90;99.90
41294;DHT22;27037;52.010;4.446;2022-09-25T16:41:25;15.80;99.90
41294;DHT22;27037;52.010;4.446;2022-09-25T16:44:27;15.80;99.90
41294;DHT22;27037;52.010;4.446;2022-09-25T16:49:25;15.70;99.90
41294;DHT22;27037;52.010;4.446;2022-09-25T16:51:53;15.70;99.90
41294;DHT22;27037;52.010;4.446;2022-09-25T16:54:20;15.70;99.90
41294;DHT22;27037;52.010;4.446;2022-09-25T16:56:47;15.70;99.90
41294;DHT22;27037;52.010;4.446;2022-09-25T16:59:16;15.70;99.90
41294;DHT22;27037;52.010;4.446;2022-09-25T17:01:43;15.60;99.90
41294;DHT22;27037;52.010;4.446;2022-09-25T17:04:10;15.60;99.90
41294;DHT22;27037;52.010;4.446;2022-09-25T17:06:37;15.50;99.90
41294;DHT22;27037;52.010;4.446;2022-09-25T17:09:10;15.50;99.90
41294;DHT22;27037;52.010;4.446;2022-09-25T17:11:37;15.50;99.90
41294;DHT22;27037;52.010;4.446;2022-09-25T17:14:04;15.50;99.90
41294;DHT22;27037;52.010;4.446;2022-09-25T17:16:31;15.50;99.90
41294;DHT22;27037;52.010;4.446;2022-09-25T17:18:57;15.50;99.90
41294;DHT22;27037;52.010;4.446;2022-09-25T17:21:23;15.50;99.90
41294;DHT22;27037;52.010;4.446;2022-09-25T17:23:49;15.40;99.90
41294;DHT22;27037;52.010;4.446;2022-09-25T17:26:17;15.40;99.90
41294;DHT22;27037;52.010;4.446;2022-09-25T17:28:44;15.20;99.90
41294;DHT22;27037;52.010;4.446;2022-09-25T17:31:16;15.10;99.90
41294;DHT22;27037;52.010;4.446;2022-09-25T17:33:45;14.90;99.90
41294;DHT22;27037;52.010;4.446;2022-09-25T17:36:11;14.90;99.90
41294;DHT22;27037;52.010;4.446;2022-09-25T17:38:37;14.80;99.90
41294;DHT22;27037;52.010;4.446;2022-09-25T17:41:06;14.70;99.90
41294;DHT22;27037;52.010;4.446;2022-09-25T17:43:34;14.70;99.90
41294;DHT22;27037;52.010;4.446;2022-09-25T17:46:00;14.60;99.90
41294;DHT22;27037;52.010;4.446;2022-09-25T17:48:30;14.60;99.90
41294;DHT22;27037;52.010;4.446;2022-09-25T17:51:09;14.60;99.90
41294;DHT22;27037;52.010;4.446;2022-09-25T17:53:36;14.60;99.90
41294;DHT22;27037;52.010;4.446;2022-09-25T17:56:02;14.60;99.90
41294;DHT22;27037;52.010;4.446;2022-09-25T17:58:29;14.60;99.90
41294;DHT22;27037;52.010;4.446;2022-09-25T18:00:58;14.50;99.90
41294;DHT22;27037;52.010;4.446;2022-09-25T18:03:24;14.50;99.90
41294;DHT22;27037;52.010;4.446;2022-09-25T18:05:50;14.50;99.90
41294;DHT22;27037;52.010;4.446;2022-09-25T18:08:16;14.40;99.90
41294;DHT22;27037;52.010;4.446;2022-09-25T18:10:43;14.40;99.90
41294;DHT22;27037;52.010;4.446;2022-09-25T18:13:15;14.30;99.90
41294;DHT22;27037;52.010;4.446;2022-09-25T18:15:53;14.30;99.90
41294;DHT22;27037;52.010;4.446;2022-09-25T18:18:20;14.30;99.90
41294;DHT22;27037;52.010;4.446;2022-09-25T18:20:45;14.20;99.90
41294;DHT22;27037;52.010;4.446;2022-09-25T18:23:30;14.20;99.90
41294;DHT22;27037;52.010;4.446;2022-09-25T18:26:02;14.20;99.90
41294;DHT22;27037;52.010;4.446;2022-09-25T18:28:28;14.20;99.90
41294;DHT22;27037;52.010;4.446;2022-09-25T18:30:56;14.10;99.90
41294;DHT22;27037;52.010;4.446;2022-09-25T18:33:23;14.10;99.90
41294;DHT22;27037;52.010;4.446;2022-09-25T18:35:52;14.10;99.90
41294;DHT22;27037;52.010;4.446;2022-09-25T18:38:18;14.10;99.90
41294;DHT22;27037;52.010;4.446;2022-09-25T18:40:44;14.10;99.90
41294;DHT22;27037;52.010;4.446;2022-09-25T18:43:10;14.10;99.90
41294;DHT22;27037;52.010;4.446;2022-09-25T18:45:36;14.10;99.90
41294;DHT22;27037;52.010;4.446;2022-09-25T18:48:02;14.10;99.90
41294;DHT22;27037;52.010;4.446;2022-09-25T18:50:29;14.10;99.90
41294;DHT22;27037;52.010;4.446;2022-09-25T18:52:56;14.10;99.90
41294;DHT22;27037;52.010;4.446;2022-09-25T18:55:22;14.10;99.90